sensor_id;sensor_type;location;lat;lon;timestamp;P1;durP1;ratioP1;P2;durP2;ratioP2
42294;SDS011;27947;47.556;18.718;2023-02-23T00:00:07;21.63;;;9.88;;
42294;SDS011;27947;47.556;18.718;2023-02-23T00:02:45;28.90;;;11.45;;
42294;SDS011;27947;47.556;18.718;2023-02-23T00:05:10;26.17;;;10.57;;
42294;SDS011;27947;47.556;18.718;2023-02-23T00:07:36;23.73;;;10.43;;
42294;SDS011;27947;47.556;18.718;2023-02-23T00:10:01;22.88;;;10.50;;
42294;SDS011;27947;47.556;18.718;2023-02-23T00:12:26;26.42;;;9.98;;
42294;SDS011;27947;47.556;18.718;2023-02-23T00:14:52;23.02;;;10.13;;
42294;SDS011;27947;47.556;18.718;2023-02-23T00:17:17;24.55;;;10.55;;
42294;SDS011;27947;47.556;18.718;2023-02-23T00:19:43;24.13;;;10.70;;
42294;SDS011;27947;47.556;18.718;2023-02-23T00:22:11;19.75;;;10.70;;
42294;SDS011;27947;47.556;18.718;2023-02-23T00:24:36;27.92;;;12.43;;
42294;SDS011;27947;47.556;18.718;2023-02-23T00:27:02;22.42;;;10.25;;
42294;SDS011;27947;47.556;18.718;2023-02-23T00:29:31;29.67;;;11.43;;
42294;SDS011;27947;47.556;18.718;2023-02-23T00:32:03;30.00;;;11.02;;
42294;SDS011;27947;47.556;18.718;2023-02-23T00:34:28;25.70;;;11.82;;
42294;SDS011;27947;47.556;18.718;2023-02-23T00:36:54;27.80;;;10.82;;
42294;SDS011;27947;47.556;18.718;2023-02-23T00:39:19;23.90;;;10.38;;
42294;SDS011;27947;47.556;18.718;2023-02-23T00:41:45;26.95;;;10.85;;
42294;SDS011;27947;47.556;18.718;2023-02-23T00:44:10;29.08;;;10.95;;
42294;SDS011;27947;47.556;18.718;2023-02-23T00:46:40;31.92;;;12.52;;
42294;SDS011;27947;47.556;18.718;2023-02-23T00:49:07;22.95;;;10.25;;
42294;SDS011;27947;47.556;18.718;2023-02-23T00:51:33;20.25;;;9.60;;
42294;SDS011;27947;47.556;18.718;2023-02-23T00:53:59;29.08;;;10.02;;
42294;SDS011;27947;47.556;18.718;2023-02-23T00:56:24;24.50;;;9.85;;
42294;SDS011;27947;47.556;18.718;2023-02-23T00:58:50;23.45;;;9.95;;
42294;SDS011;27947;47.556;18.718;2023-02-23T01:01:15;23.52;;;10.02;;
42294;SDS011;27947;47.556;18.718;2023-02-23T01:03:41;20.08;;;9.55;;
42294;SDS011;27947;47.556;18.718;2023-02-23T01:06:09;21.35;;;9.45;;
42294;SDS011;27947;47.556;18.718;2023-02-23T01:08:36;20.55;;;9.05;;
42294;SDS011;27947;47.556;18.718;2023-02-23T01:11:13;17.10;;;8.98;;
42294;SDS011;27947;47.556;18.718;2023-02-23T01:13:40;19.88;;;9.57;;
42294;SDS011;27947;47.556;18.718;2023-02-23T01:16:07;21.23;;;9.25;;
42294;SDS011;27947;47.556;18.718;2023-02-23T01:18:33;20.98;;;9.35;;
42294;SDS011;27947;47.556;18.718;2023-02-23T01:21:00;22.38;;;9.30;;
42294;SDS011;27947;47.556;18.718;2023-02-23T01:23:25;18.60;;;9.90;;
42294;SDS011;27947;47.556;18.718;2023-02-23T01:25:51;15.50;;;8.70;;
42294;SDS011;27947;47.556;18.718;2023-02-23T01:28:16;22.23;;;9.13;;
42294;SDS011;27947;47.556;18.718;2023-02-23T01:30:41;19.27;;;9.20;;
42294;SDS011;27947;47.556;18.718;2023-02-23T01:33:07;20.98;;;9.88;;
42294;SDS011;27947;47.556;18.718;2023-02-23T01:35:33;22.00;;;10.00;;
42294;SDS011;27947;47.556;18.718;2023-02-23T01:37:59;22.15;;;9.85;;
42294;SDS011;27947;47.556;18.718;2023-02-23T01:40:24;21.20;;;9.65;;
42294;SDS011;27947;47.556;18.718;2023-02-23T01:42:54;22.13;;;10.13;;
42294;SDS011;27947;47.556;18.718;2023-02-23T01:47:45;22.33;;;10.10;;
42294;SDS011;27947;47.556;18.718;2023-02-23T01:50:12;19.75;;;9.65;;
42294;SDS011;27947;47.556;18.718;2023-02-23T01:52:41;24.13;;;9.45;;
42294;SDS011;27947;47.556;18.718;2023-02-23T01:55:07;23.25;;;10.45;;
42294;SDS011;27947;47.556;18.718;2023-02-23T01:57:37;19.73;;;9.50;;
42294;SDS011;27947;47.556;18.718;2023-02-23T02:00:03;20.90;;;10.10;;
42294;SDS011;27947;47.556;18.718;2023-02-23T02:02:38;24.23;;;10.48;;
42294;SDS011;27947;47.556;18.718;2023-02-23T02:05:03;30.05;;;10.25;;
42294;SDS011;27947;47.556;18.718;2023-02-23T02:07:32;20.20;;;9.82;;
42294;SDS011;27947;47.556;18.718;2023-02-23T02:09:59;21.80;;;10.02;;
42294;SDS011;27947;47.556;18.718;2023-02-23T02:12:37;20.20;;;9.70;;
42294;SDS011;27947;47.556;18.718;2023-02-23T02:15:04;26.88;;;9.90;;
42294;SDS011;27947;47.556;18.718;2023-02-23T02:36:17;22.83;;;10.35;;
42294;SDS011;27947;47.556;18.718;2023-02-23T02:41:07;19.60;;;9.93;;
42294;SDS011;27947;47.556;18.718;2023-02-23T02:43:51;21.52;;;9.60;;
42294;SDS011;27947;47.556;18.718;2023-02-23T02:51:20;23.80;;;9.55;;
42294;SDS011;27947;47.556;18.718;2023-02-23T02:56:42;18.23;;;9.20;;
42294;SDS011;27947;47.556;18.718;2023-02-23T02:59:15;25.52;;;10.05;;
42294;SDS011;27947;47.556;18.718;2023-02-23T03:01:59;21.33;;;9.85;;
42294;SDS011;27947;47.556;18.718;2023-02-23T03:04:43;21.40;;;9.13;;
42294;SDS011;27947;47.556;18.718;2023-02-23T03:07:33;20.83;;;9.32;;
42294;SDS011;27947;47.556;18.718;2023-02-23T03:10:35;20.63;;;9.30;;
42294;SDS011;27947;47.556;18.718;2023-02-23T03:16:22;20.05;;;9.38;;
42294;SDS011;27947;47.556;18.718;2023-02-23T03:19:14;18.60;;;8.02;;
42294;SDS011;27947;47.556;18.718;2023-02-23T03:22:21;22.35;;;9.25;;
42294;SDS011;27947;47.556;18.718;2023-02-23T03:25:05;22.83;;;9.07;;
42294;SDS011;27947;47.556;18.718;2023-02-23T03:27:53;19.05;;;8.23;;
42294;SDS011;27947;47.556;18.718;2023-02-23T03:30:44;15.75;;;7.88;;
42294;SDS011;27947;47.556;18.718;2023-02-23T03:33:35;20.47;;;7.43;;
42294;SDS011;27947;47.556;18.718;2023-02-23T03:36:25;16.80;;;7.25;;
42294;SDS011;27947;47.556;18.718;2023-02-23T03:39:15;15.27;;;7.32;;
42294;SDS011;27947;47.556;18.718;2023-02-23T03:42:01;16.38;;;7.50;;
42294;SDS011;27947;47.556;18.718;2023-02-23T03:44:49;20.27;;;7.65;;
42294;SDS011;27947;47.556;18.718;2023-02-23T03:47:36;18.35;;;7.68;;
42294;SDS011;27947;47.556;18.718;2023-02-23T03:50:44;18.98;;;6.90;;
42294;SDS011;27947;47.556;18.718;2023-02-23T03:53:30;16.90;;;6.15;;
42294;SDS011;27947;47.556;18.718;2023-02-23T03:56:15;16.45;;;5.90;;
42294;SDS011;27947;47.556;18.718;2023-02-23T03:59:00;18.48;;;6.50;;
42294;SDS011;27947;47.556;18.718;2023-02-23T04:01:46;18.60;;;7.07;;
42294;SDS011;27947;47.556;18.718;2023-02-23T04:04:30;16.60;;;5.93;;
42294;SDS011;27947;47.556;18.718;2023-02-23T04:07:15;16.48;;;6.80;;
42294;SDS011;27947;47.556;18.718;2023-02-23T04:10:01;17.58;;;6.35;;
42294;SDS011;27947;47.556;18.718;2023-02-23T04:16:13;17.35;;;6.10;;
42294;SDS011;27947;47.556;18.718;2023-02-23T04:18:32;16.17;;;6.90;;
42294;SDS011;27947;47.556;18.718;2023-02-23T04:20:58;15.43;;;5.93;;
42294;SDS011;27947;47.556;18.718;2023-02-23T04:23:25;12.43;;;5.63;;
42294;SDS011;27947;47.556;18.718;2023-02-23T04:25:51;12.48;;;5.43;;
42294;SDS011;27947;47.556;18.718;2023-02-23T04:28:18;15.15;;;5.85;;
42294;SDS011;27947;47.556;18.718;2023-02-23T04:30:44;19.30;;;6.32;;
42294;SDS011;27947;47.556;18.718;2023-02-23T04:33:09;18.15;;;6.70;;
42294;SDS011;27947;47.556;18.718;2023-02-23T04:35:35;21.55;;;6.57;;
42294;SDS011;27947;47.556;18.718;2023-02-23T04:38:00;17.23;;;6.20;;
42294;SDS011;27947;47.556;18.718;2023-02-23T04:40:26;18.08;;;6.43;;
42294;SDS011;27947;47.556;18.718;2023-02-23T04:42:52;15.48;;;6.45;;
42294;SDS011;27947;47.556;18.718;2023-02-23T04:45:17;19.27;;;6.68;;
42294;SDS011;27947;47.556;18.718;2023-02-23T04:47:43;20.98;;;6.60;;
42294;SDS011;27947;47.556;18.718;2023-02-23T04:50:09;20.27;;;6.75;;
42294;SDS011;27947;47.556;18.718;2023-02-23T04:52:35;13.60;;;5.97;;
42294;SDS011;27947;47.556;18.718;2023-02-23T04:55:02;22.60;;;6.45;;
42294;SDS011;27947;47.556;18.718;2023-02-23T04:57:27;18.33;;;6.78;;
42294;SDS011;27947;47.556;18.718;2023-02-23T04:59:53;17.42;;;6.25;;
42294;SDS011;27947;47.556;18.718;2023-02-23T05:02:18;17.95;;;6.00;;
42294;SDS011;27947;47.556;18.718;2023-02-23T05:04:43;20.20;;;6.18;;
42294;SDS011;27947;47.556;18.718;2023-02-23T05:07:09;16.55;;;6.30;;
42294;SDS011;27947;47.556;18.718;2023-02-23T05:09:34;17.27;;;6.03;;
42294;SDS011;27947;47.556;18.718;2023-02-23T05:12:00;18.35;;;6.45;;
42294;SDS011;27947;47.556;18.718;2023-02-23T05:14:25;14.75;;;6.50;;
42294;SDS011;27947;47.556;18.718;2023-02-23T05:16:51;17.40;;;6.82;;
42294;SDS011;27947;47.556;18.718;2023-02-23T05:19:16;15.82;;;6.43;;
42294;SDS011;27947;47.556;18.718;2023-02-23T05:21:42;15.98;;;6.60;;
42294;SDS011;27947;47.556;18.718;2023-02-23T05:24:08;13.27;;;6.13;;
42294;SDS011;27947;47.556;18.718;2023-02-23T05:26:34;13.18;;;5.57;;
42294;SDS011;27947;47.556;18.718;2023-02-23T05:28:59;15.77;;;6.00;;
42294;SDS011;27947;47.556;18.718;2023-02-23T05:31:25;14.32;;;6.28;;
42294;SDS011;27947;47.556;18.718;2023-02-23T05:33:50;16.83;;;6.45;;
42294;SDS011;27947;47.556;18.718;2023-02-23T05:36:16;16.13;;;6.15;;
42294;SDS011;27947;47.556;18.718;2023-02-23T05:38:42;17.95;;;6.20;;
42294;SDS011;27947;47.556;18.718;2023-02-23T05:41:09;17.10;;;6.28;;
42294;SDS011;27947;47.556;18.718;2023-02-23T05:43:34;15.55;;;6.15;;
42294;SDS011;27947;47.556;18.718;2023-02-23T05:46:00;15.38;;;5.80;;
42294;SDS011;27947;47.556;18.718;2023-02-23T05:48:26;18.13;;;6.20;;
42294;SDS011;27947;47.556;18.718;2023-02-23T05:50:52;16.33;;;6.55;;
42294;SDS011;27947;47.556;18.718;2023-02-23T05:53:17;18.33;;;6.45;;
42294;SDS011;27947;47.556;18.718;2023-02-23T05:55:42;15.13;;;7.03;;
42294;SDS011;27947;47.556;18.718;2023-02-23T05:58:08;14.80;;;7.05;;
42294;SDS011;27947;47.556;18.718;2023-02-23T06:00:33;16.67;;;6.40;;
42294;SDS011;27947;47.556;18.718;2023-02-23T06:02:58;17.00;;;6.80;;
42294;SDS011;27947;47.556;18.718;2023-02-23T06:05:24;19.17;;;7.07;;
42294;SDS011;27947;47.556;18.718;2023-02-23T06:07:49;19.48;;;7.47;;
42294;SDS011;27947;47.556;18.718;2023-02-23T06:10:15;20.23;;;7.18;;
42294;SDS011;27947;47.556;18.718;2023-02-23T06:12:40;24.63;;;7.85;;
42294;SDS011;27947;47.556;18.718;2023-02-23T06:15:06;19.15;;;7.18;;
42294;SDS011;27947;47.556;18.718;2023-02-23T06:17:31;16.25;;;7.43;;
42294;SDS011;27947;47.556;18.718;2023-02-23T06:19:57;15.75;;;7.45;;
42294;SDS011;27947;47.556;18.718;2023-02-23T06:22:23;24.50;;;9.20;;
42294;SDS011;27947;47.556;18.718;2023-02-23T06:24:49;25.90;;;9.13;;
42294;SDS011;27947;47.556;18.718;2023-02-23T06:27:14;21.15;;;7.85;;
42294;SDS011;27947;47.556;18.718;2023-02-23T06:29:40;21.08;;;9.10;;
42294;SDS011;27947;47.556;18.718;2023-02-23T06:32:05;21.35;;;8.35;;
42294;SDS011;27947;47.556;18.718;2023-02-23T06:34:31;20.33;;;8.27;;
42294;SDS011;27947;47.556;18.718;2023-02-23T06:36:58;24.33;;;7.65;;
42294;SDS011;27947;47.556;18.718;2023-02-23T06:39:24;17.15;;;7.93;;
42294;SDS011;27947;47.556;18.718;2023-02-23T06:41:49;17.83;;;7.30;;
42294;SDS011;27947;47.556;18.718;2023-02-23T06:44:14;17.92;;;8.02;;
42294;SDS011;27947;47.556;18.718;2023-02-23T06:46:40;24.15;;;8.15;;
42294;SDS011;27947;47.556;18.718;2023-02-23T06:49:05;19.42;;;9.02;;
42294;SDS011;27947;47.556;18.718;2023-02-23T06:51:30;18.52;;;7.78;;
42294;SDS011;27947;47.556;18.718;2023-02-23T06:53:56;20.48;;;7.38;;
42294;SDS011;27947;47.556;18.718;2023-02-23T06:56:21;22.80;;;8.32;;
42294;SDS011;27947;47.556;18.718;2023-02-23T06:58:47;21.67;;;8.90;;
42294;SDS011;27947;47.556;18.718;2023-02-23T07:01:13;19.55;;;8.57;;
42294;SDS011;27947;47.556;18.718;2023-02-23T07:03:38;20.60;;;8.23;;
42294;SDS011;27947;47.556;18.718;2023-02-23T07:06:04;17.13;;;7.60;;
42294;SDS011;27947;47.556;18.718;2023-02-23T07:08:30;17.58;;;8.27;;
42294;SDS011;27947;47.556;18.718;2023-02-23T07:10:55;17.58;;;7.80;;
42294;SDS011;27947;47.556;18.718;2023-02-23T07:13:21;23.58;;;8.30;;
42294;SDS011;27947;47.556;18.718;2023-02-23T07:15:47;19.70;;;8.35;;
42294;SDS011;27947;47.556;18.718;2023-02-23T07:18:13;21.02;;;7.60;;
42294;SDS011;27947;47.556;18.718;2023-02-23T07:20:38;20.13;;;8.00;;
42294;SDS011;27947;47.556;18.718;2023-02-23T07:23:03;20.73;;;8.90;;
42294;SDS011;27947;47.556;18.718;2023-02-23T07:25:29;20.42;;;8.32;;
42294;SDS011;27947;47.556;18.718;2023-02-23T07:27:54;23.77;;;7.88;;
42294;SDS011;27947;47.556;18.718;2023-02-23T07:30:20;24.48;;;8.15;;
42294;SDS011;27947;47.556;18.718;2023-02-23T07:32:52;24.67;;;8.25;;
42294;SDS011;27947;47.556;18.718;2023-02-23T07:35:17;19.38;;;8.18;;
42294;SDS011;27947;47.556;18.718;2023-02-23T07:37:43;19.00;;;7.43;;
42294;SDS011;27947;47.556;18.718;2023-02-23T07:40:09;18.33;;;7.93;;
42294;SDS011;27947;47.556;18.718;2023-02-23T07:42:34;18.05;;;7.80;;
42294;SDS011;27947;47.556;18.718;2023-02-23T07:45:00;19.35;;;7.80;;
42294;SDS011;27947;47.556;18.718;2023-02-23T07:47:25;20.35;;;8.55;;
42294;SDS011;27947;47.556;18.718;2023-02-23T07:49:58;21.05;;;8.65;;
42294;SDS011;27947;47.556;18.718;2023-02-23T07:52:24;21.13;;;7.68;;
42294;SDS011;27947;47.556;18.718;2023-02-23T07:54:50;18.88;;;7.60;;
42294;SDS011;27947;47.556;18.718;2023-02-23T07:57:15;20.52;;;7.10;;
42294;SDS011;27947;47.556;18.718;2023-02-23T07:59:40;20.15;;;7.25;;
42294;SDS011;27947;47.556;18.718;2023-02-23T08:02:06;21.17;;;7.75;;
42294;SDS011;27947;47.556;18.718;2023-02-23T08:04:31;21.38;;;6.70;;
42294;SDS011;27947;47.556;18.718;2023-02-23T08:06:56;19.98;;;7.35;;
42294;SDS011;27947;47.556;18.718;2023-02-23T08:09:22;18.95;;;7.13;;
42294;SDS011;27947;47.556;18.718;2023-02-23T08:11:48;19.33;;;6.53;;
42294;SDS011;27947;47.556;18.718;2023-02-23T08:14:14;15.55;;;6.68;;
42294;SDS011;27947;47.556;18.718;2023-02-23T08:16:39;15.48;;;6.57;;
42294;SDS011;27947;47.556;18.718;2023-02-23T08:19:05;17.80;;;7.05;;
42294;SDS011;27947;47.556;18.718;2023-02-23T08:21:30;15.63;;;6.80;;
42294;SDS011;27947;47.556;18.718;2023-02-23T08:23:56;12.75;;;6.47;;
42294;SDS011;27947;47.556;18.718;2023-02-23T08:26:22;20.33;;;6.55;;
42294;SDS011;27947;47.556;18.718;2023-02-23T08:28:49;17.52;;;5.78;;
42294;SDS011;27947;47.556;18.718;2023-02-23T08:31:15;16.35;;;7.03;;
42294;SDS011;27947;47.556;18.718;2023-02-23T08:33:42;20.23;;;6.65;;
42294;SDS011;27947;47.556;18.718;2023-02-23T08:36:08;15.48;;;6.30;;
42294;SDS011;27947;47.556;18.718;2023-02-23T08:38:33;14.90;;;6.32;;
42294;SDS011;27947;47.556;18.718;2023-02-23T08:41:01;14.48;;;6.57;;
42294;SDS011;27947;47.556;18.718;2023-02-23T08:43:26;19.42;;;8.10;;
42294;SDS011;27947;47.556;18.718;2023-02-23T08:45:52;17.63;;;8.23;;
42294;SDS011;27947;47.556;18.718;2023-02-23T08:48:17;24.85;;;9.35;;
42294;SDS011;27947;47.556;18.718;2023-02-23T08:50:42;16.10;;;7.57;;
42294;SDS011;27947;47.556;18.718;2023-02-23T08:53:08;17.88;;;7.47;;
42294;SDS011;27947;47.556;18.718;2023-02-23T08:55:36;21.52;;;7.95;;
42294;SDS011;27947;47.556;18.718;2023-02-23T08:58:01;19.38;;;7.60;;
42294;SDS011;27947;47.556;18.718;2023-02-23T09:00:27;19.65;;;8.15;;
42294;SDS011;27947;47.556;18.718;2023-02-23T09:02:52;17.27;;;7.38;;
42294;SDS011;27947;47.556;18.718;2023-02-23T09:05:17;18.98;;;7.97;;
42294;SDS011;27947;47.556;18.718;2023-02-23T09:07:43;25.40;;;8.23;;
42294;SDS011;27947;47.556;18.718;2023-02-23T09:10:18;26.48;;;7.63;;
42294;SDS011;27947;47.556;18.718;2023-02-23T09:12:44;22.38;;;8.18;;
42294;SDS011;27947;47.556;18.718;2023-02-23T09:15:09;19.50;;;8.60;;
42294;SDS011;27947;47.556;18.718;2023-02-23T09:17:35;19.98;;;7.82;;
42294;SDS011;27947;47.556;18.718;2023-02-23T09:20:01;23.25;;;8.68;;
42294;SDS011;27947;47.556;18.718;2023-02-23T09:22:26;23.48;;;8.10;;
42294;SDS011;27947;47.556;18.718;2023-02-23T09:24:51;19.35;;;8.60;;
42294;SDS011;27947;47.556;18.718;2023-02-23T09:27:17;20.60;;;7.50;;
42294;SDS011;27947;47.556;18.718;2023-02-23T09:29:42;20.98;;;8.20;;
42294;SDS011;27947;47.556;18.718;2023-02-23T09:32:08;16.90;;;8.15;;
42294;SDS011;27947;47.556;18.718;2023-02-23T09:34:34;27.30;;;9.77;;
42294;SDS011;27947;47.556;18.718;2023-02-23T09:37:00;18.80;;;7.68;;
42294;SDS011;27947;47.556;18.718;2023-02-23T09:39:27;19.83;;;6.90;;
42294;SDS011;27947;47.556;18.718;2023-02-23T09:46:59;16.88;;;7.68;;
42294;SDS011;27947;47.556;18.718;2023-02-23T09:49:30;21.00;;;7.85;;
42294;SDS011;27947;47.556;18.718;2023-02-23T09:51:57;22.67;;;7.80;;
42294;SDS011;27947;47.556;18.718;2023-02-23T09:54:25;16.55;;;7.18;;
42294;SDS011;27947;47.556;18.718;2023-02-23T09:56:52;17.95;;;6.82;;
42294;SDS011;27947;47.556;18.718;2023-02-23T09:59:20;20.02;;;7.15;;
42294;SDS011;27947;47.556;18.718;2023-02-23T10:06:41;16.63;;;6.35;;
42294;SDS011;27947;47.556;18.718;2023-02-23T10:14:55;20.70;;;8.10;;
42294;SDS011;27947;47.556;18.718;2023-02-23T10:19:27;16.90;;;7.90;;
42294;SDS011;27947;47.556;18.718;2023-02-23T10:21:56;18.48;;;7.57;;
42294;SDS011;27947;47.556;18.718;2023-02-23T10:27:35;15.98;;;7.40;;
42294;SDS011;27947;47.556;18.718;2023-02-23T10:30:02;21.23;;;8.38;;
42294;SDS011;27947;47.556;18.718;2023-02-23T10:35:13;21.15;;;8.82;;
42294;SDS011;27947;47.556;18.718;2023-02-23T10:37:39;24.35;;;8.77;;
42294;SDS011;27947;47.556;18.718;2023-02-23T10:40:04;22.08;;;8.50;;
42294;SDS011;27947;47.556;18.718;2023-02-23T10:42:30;22.90;;;8.88;;
42294;SDS011;27947;47.556;18.718;2023-02-23T10:44:56;18.33;;;8.40;;
42294;SDS011;27947;47.556;18.718;2023-02-23T10:47:23;24.00;;;9.27;;
42294;SDS011;27947;47.556;18.718;2023-02-23T10:49:51;24.35;;;9.55;;
42294;SDS011;27947;47.556;18.718;2023-02-23T10:54:45;21.00;;;8.73;;
42294;SDS011;27947;47.556;18.718;2023-02-23T10:57:18;21.73;;;8.38;;
42294;SDS011;27947;47.556;18.718;2023-02-23T10:59:58;19.80;;;8.68;;
42294;SDS011;27947;47.556;18.718;2023-02-23T11:02:24;23.63;;;9.02;;
42294;SDS011;27947;47.556;18.718;2023-02-23T11:04:51;21.85;;;8.30;;
42294;SDS011;27947;47.556;18.718;2023-02-23T11:07:20;22.60;;;8.43;;
42294;SDS011;27947;47.556;18.718;2023-02-23T11:09:46;19.52;;;7.85;;
42294;SDS011;27947;47.556;18.718;2023-02-23T11:12:19;19.88;;;8.85;;
42294;SDS011;27947;47.556;18.718;2023-02-23T11:14:46;22.42;;;8.70;;
42294;SDS011;27947;47.556;18.718;2023-02-23T11:19:49;18.77;;;8.10;;
42294;SDS011;27947;47.556;18.718;2023-02-23T11:22:18;17.83;;;8.05;;
42294;SDS011;27947;47.556;18.718;2023-02-23T11:24:47;17.85;;;7.60;;
42294;SDS011;27947;47.556;18.718;2023-02-23T11:27:23;21.55;;;8.35;;
42294;SDS011;27947;47.556;18.718;2023-02-23T11:29:49;20.67;;;8.55;;
42294;SDS011;27947;47.556;18.718;2023-02-23T11:34:43;26.90;;;9.07;;
42294;SDS011;27947;47.556;18.718;2023-02-23T11:39:37;19.02;;;7.93;;
42294;SDS011;27947;47.556;18.718;2023-02-23T11:42:18;16.98;;;8.02;;
42294;SDS011;27947;47.556;18.718;2023-02-23T11:44:51;18.75;;;7.95;;
42294;SDS011;27947;47.556;18.718;2023-02-23T11:47:26;24.15;;;8.52;;
42294;SDS011;27947;47.556;18.718;2023-02-23T11:49:51;20.45;;;8.25;;
42294;SDS011;27947;47.556;18.718;2023-02-23T11:52:18;20.77;;;8.90;;
42294;SDS011;27947;47.556;18.718;2023-02-23T11:54:53;19.05;;;7.93;;
42294;SDS011;27947;47.556;18.718;2023-02-23T11:57:19;21.88;;;8.10;;
42294;SDS011;27947;47.556;18.718;2023-02-23T11:59:46;27.30;;;9.43;;
42294;SDS011;27947;47.556;18.718;2023-02-23T12:02:27;20.05;;;7.70;;
42294;SDS011;27947;47.556;18.718;2023-02-23T12:05:38;22.05;;;9.13;;
42294;SDS011;27947;47.556;18.718;2023-02-23T12:07:40;16.73;;;7.68;;
42294;SDS011;27947;47.556;18.718;2023-02-23T12:15:24;18.75;;;7.80;;
42294;SDS011;27947;47.556;18.718;2023-02-23T12:17:52;19.88;;;8.73;;
42294;SDS011;27947;47.556;18.718;2023-02-23T12:20:21;21.33;;;7.63;;
42294;SDS011;27947;47.556;18.718;2023-02-23T12:22:49;17.15;;;7.60;;
42294;SDS011;27947;47.556;18.718;2023-02-23T12:25:29;21.25;;;8.23;;
42294;SDS011;27947;47.556;18.718;2023-02-23T12:28:17;14.93;;;6.82;;
42294;SDS011;27947;47.556;18.718;2023-02-23T12:30:49;24.60;;;8.88;;
42294;SDS011;27947;47.556;18.718;2023-02-23T12:33:18;13.18;;;7.00;;
42294;SDS011;27947;47.556;18.718;2023-02-23T12:35:48;23.33;;;8.63;;
42294;SDS011;27947;47.556;18.718;2023-02-23T12:38:16;17.50;;;7.60;;
42294;SDS011;27947;47.556;18.718;2023-02-23T12:40:43;21.48;;;7.38;;
42294;SDS011;27947;47.556;18.718;2023-02-23T12:45:53;19.75;;;8.45;;
42294;SDS011;27947;47.556;18.718;2023-02-23T12:51:05;15.70;;;6.80;;
42294;SDS011;27947;47.556;18.718;2023-02-23T12:53:37;17.38;;;7.45;;
42294;SDS011;27947;47.556;18.718;2023-02-23T13:06:25;15.90;;;6.20;;
42294;SDS011;27947;47.556;18.718;2023-02-23T13:09:07;18.40;;;7.50;;
42294;SDS011;27947;47.556;18.718;2023-02-23T13:16:50;17.80;;;6.43;;
42294;SDS011;27947;47.556;18.718;2023-02-23T13:24:23;13.35;;;5.97;;
42294;SDS011;27947;47.556;18.718;2023-02-23T13:29:37;12.43;;;6.43;;
42294;SDS011;27947;47.556;18.718;2023-02-23T13:32:05;13.52;;;6.20;;
42294;SDS011;27947;47.556;18.718;2023-02-23T13:35:19;18.65;;;7.32;;
42294;SDS011;27947;47.556;18.718;2023-02-23T13:37:22;17.65;;;7.32;;
42294;SDS011;27947;47.556;18.718;2023-02-23T13:50:06;35.30;;;8.30;;
42294;SDS011;27947;47.556;18.718;2023-02-23T13:52:38;15.93;;;6.25;;
42294;SDS011;27947;47.556;18.718;2023-02-23T13:55:31;16.98;;;6.68;;
42294;SDS011;27947;47.556;18.718;2023-02-23T13:57:50;14.30;;;6.80;;
42294;SDS011;27947;47.556;18.718;2023-02-23T14:00:18;13.30;;;6.30;;
42294;SDS011;27947;47.556;18.718;2023-02-23T14:02:44;16.75;;;6.90;;
42294;SDS011;27947;47.556;18.718;2023-02-23T14:05:19;13.90;;;6.03;;
42294;SDS011;27947;47.556;18.718;2023-02-23T14:07:47;17.13;;;6.68;;
42294;SDS011;27947;47.556;18.718;2023-02-23T14:10:22;15.23;;;7.03;;
42294;SDS011;27947;47.556;18.718;2023-02-23T14:20:35;15.38;;;7.97;;
42294;SDS011;27947;47.556;18.718;2023-02-23T14:23:13;18.23;;;6.50;;
42294;SDS011;27947;47.556;18.718;2023-02-23T14:33:33;18.33;;;8.40;;
42294;SDS011;27947;47.556;18.718;2023-02-23T14:35:59;18.33;;;7.57;;
42294;SDS011;27947;47.556;18.718;2023-02-23T14:38:29;23.70;;;7.72;;
42294;SDS011;27947;47.556;18.718;2023-02-23T14:40:55;20.05;;;7.82;;
42294;SDS011;27947;47.556;18.718;2023-02-23T14:46:10;16.70;;;8.40;;
42294;SDS011;27947;47.556;18.718;2023-02-23T14:48:35;19.13;;;8.18;;
42294;SDS011;27947;47.556;18.718;2023-02-23T14:51:10;16.52;;;8.27;;
42294;SDS011;27947;47.556;18.718;2023-02-23T14:53:41;23.33;;;8.07;;
42294;SDS011;27947;47.556;18.718;2023-02-23T14:56:16;18.70;;;7.88;;
42294;SDS011;27947;47.556;18.718;2023-02-23T14:58:41;15.07;;;6.85;;
42294;SDS011;27947;47.556;18.718;2023-02-23T15:01:07;15.35;;;7.75;;
42294;SDS011;27947;47.556;18.718;2023-02-23T15:03:32;21.25;;;8.13;;
42294;SDS011;27947;47.556;18.718;2023-02-23T15:05:58;19.73;;;7.95;;
42294;SDS011;27947;47.556;18.718;2023-02-23T15:08:25;16.33;;;7.60;;
42294;SDS011;27947;47.556;18.718;2023-02-23T15:11:01;16.35;;;7.13;;
42294;SDS011;27947;47.556;18.718;2023-02-23T15:13:31;16.20;;;7.45;;
42294;SDS011;27947;47.556;18.718;2023-02-23T15:15:59;20.25;;;7.70;;
42294;SDS011;27947;47.556;18.718;2023-02-23T15:18:36;20.67;;;8.05;;
42294;SDS011;27947;47.556;18.718;2023-02-23T15:21:08;19.80;;;8.80;;
42294;SDS011;27947;47.556;18.718;2023-02-23T15:23:35;23.10;;;10.70;;
42294;SDS011;27947;47.556;18.718;2023-02-23T15:28:47;22.08;;;9.30;;
42294;SDS011;27947;47.556;18.718;2023-02-23T15:31:13;27.77;;;11.18;;
42294;SDS011;27947;47.556;18.718;2023-02-23T15:33:38;30.42;;;12.77;;
42294;SDS011;27947;47.556;18.718;2023-02-23T15:38:31;26.58;;;10.18;;
42294;SDS011;27947;47.556;18.718;2023-02-23T15:40:58;24.90;;;10.00;;
42294;SDS011;27947;47.556;18.718;2023-02-23T15:43:24;30.25;;;11.30;;
42294;SDS011;27947;47.556;18.718;2023-02-23T15:45:54;32.65;;;12.23;;
42294;SDS011;27947;47.556;18.718;2023-02-23T15:48:21;28.85;;;12.23;;
42294;SDS011;27947;47.556;18.718;2023-02-23T15:50:47;25.73;;;11.68;;
42294;SDS011;27947;47.556;18.718;2023-02-23T15:53:31;20.95;;;10.20;;
42294;SDS011;27947;47.556;18.718;2023-02-23T15:56:10;20.60;;;9.55;;
42294;SDS011;27947;47.556;18.718;2023-02-23T15:58:39;22.75;;;9.60;;
42294;SDS011;27947;47.556;18.718;2023-02-23T16:01:11;20.80;;;9.50;;
42294;SDS011;27947;47.556;18.718;2023-02-23T16:03:38;26.17;;;10.63;;
42294;SDS011;27947;47.556;18.718;2023-02-23T16:06:54;19.45;;;9.30;;
42294;SDS011;27947;47.556;18.718;2023-02-23T16:11:22;25.85;;;9.90;;
42294;SDS011;27947;47.556;18.718;2023-02-23T16:13:47;27.85;;;11.77;;
42294;SDS011;27947;47.556;18.718;2023-02-23T16:16:14;27.92;;;11.65;;
42294;SDS011;27947;47.556;18.718;2023-02-23T16:18:44;25.65;;;12.00;;
42294;SDS011;27947;47.556;18.718;2023-02-23T16:21:13;33.38;;;12.40;;
42294;SDS011;27947;47.556;18.718;2023-02-23T16:23:41;26.90;;;12.88;;
42294;SDS011;27947;47.556;18.718;2023-02-23T16:26:16;26.15;;;12.95;;
42294;SDS011;27947;47.556;18.718;2023-02-23T16:28:43;32.67;;;13.93;;
42294;SDS011;27947;47.556;18.718;2023-02-23T16:31:10;32.53;;;13.05;;
42294;SDS011;27947;47.556;18.718;2023-02-23T16:41:01;37.47;;;17.02;;
42294;SDS011;27947;47.556;18.718;2023-02-23T16:43:26;37.92;;;19.70;;
42294;SDS011;27947;47.556;18.718;2023-02-23T16:45:53;41.65;;;19.83;;
42294;SDS011;27947;47.556;18.718;2023-02-23T16:48:19;37.00;;;20.13;;
42294;SDS011;27947;47.556;18.718;2023-02-23T16:50:44;39.55;;;20.05;;
42294;SDS011;27947;47.556;18.718;2023-02-23T16:53:10;37.83;;;19.30;;
42294;SDS011;27947;47.556;18.718;2023-02-23T16:55:37;34.75;;;16.23;;
42294;SDS011;27947;47.556;18.718;2023-02-23T16:58:09;43.40;;;17.88;;